sensor_id;sensor_type;location;lat;lon;timestamp;pressure;altitude;pressure_sealevel;temperature;humidity
12101;BME280;6113;42.678;23.334;2022-10-03T00:01:03;94803.31;;;15.76;76.56
12101;BME280;6113;42.678;23.334;2022-10-03T00:03:43;94784.19;;;15.56;77.44
12101;BME280;6113;42.678;23.334;2022-10-03T00:06:24;94796.47;;;15.60;77.47
12101;BME280;6113;42.678;23.334;2022-10-03T00:11:51;94777.16;;;15.44;76.66
12101;BME280;6113;42.678;23.334;2022-10-03T00:14:28;94783.50;;;15.61;75.85
12101;BME280;6113;42.678;23.334;2022-10-03T00:17:01;94767.28;;;15.63;75.11
12101;BME280;6113;42.678;23.334;2022-10-03T00:19:36;94775.03;;;15.64;75.67
12101;BME280;6113;42.678;23.334;2022-10-03T00:22:16;94774.03;;;15.67;75.56
12101;BME280;6113;42.678;23.334;2022-10-03T00:25:02;94766.53;;;15.62;76.12
12101;BME280;6113;42.678;23.334;2022-10-03T00:27:35;94765.53;;;15.60;76.34
12101;BME280;6113;42.678;23.334;2022-10-03T00:30:15;94744.72;;;15.42;76.55
12101;BME280;6113;42.678;23.334;2022-10-03T00:32:56;94759.94;;;15.43;76.57
12101;BME280;6113;42.678;23.334;2022-10-03T00:35:34;94766.19;;;15.44;77.21
12101;BME280;6113;42.678;23.334;2022-10-03T00:38:31;94774.88;;;15.42;76.99
12101;BME280;6113;42.678;23.334;2022-10-03T00:41:15;94780.81;;;15.30;76.92
12101;BME280;6113;42.678;23.334;2022-10-03T00:47:08;94779.78;;;15.27;77.40
12101;BME280;6113;42.678;23.334;2022-10-03T00:49:57;94771.22;;;15.20;77.97
12101;BME280;6113;42.678;23.334;2022-10-03T00:52:51;94779.47;;;15.20;78.23
12101;BME280;6113;42.678;23.334;2022-10-03T00:55:29;94756.09;;;14.99;78.33
12101;BME280;6113;42.678;23.334;2022-10-03T00:58:28;94761.56;;;14.99;79.34
12101;BME280;6113;42.678;23.334;2022-10-03T01:01:03;94774.41;;;15.13;78.72
12101;BME280;6113;42.678;23.334;2022-10-03T01:03:40;94765.66;;;15.09;79.72
12101;BME280;6113;42.678;23.334;2022-10-03T01:06:22;94758.41;;;15.06;79.28
12101;BME280;6113;42.678;23.334;2022-10-03T01:09:05;94756.91;;;15.05;80.09
12101;BME280;6113;42.678;23.334;2022-10-03T01:11:47;94749.91;;;15.04;79.57
12101;BME280;6113;42.678;23.334;2022-10-03T01:14:27;94739.06;;;14.90;80.13
12101;BME280;6113;42.678;23.334;2022-10-03T01:17:06;94756.09;;;14.99;80.00
12101;BME280;6113;42.678;23.334;2022-10-03T01:23:00;94751.94;;;15.09;78.04
12101;BME280;6113;42.678;23.334;2022-10-03T01:25:37;94756.38;;;15.01;79.70
12101;BME280;6113;42.678;23.334;2022-10-03T01:28:33;94747.69;;;15.02;80.13
12101;BME280;6113;42.678;23.334;2022-10-03T01:31:24;94720.69;;;14.95;79.14
12101;BME280;6113;42.678;23.334;2022-10-03T01:34:00;94733.25;;;15.07;79.50
12101;BME280;6113;42.678;23.334;2022-10-03T01:36:33;94724.69;;;14.95;80.39
12101;BME280;6113;42.678;23.334;2022-10-03T01:39:08;94743.94;;;15.05;79.72
12101;BME280;6113;42.678;23.334;2022-10-03T01:41:48;94743.44;;;15.07;80.05
12101;BME280;6113;42.678;23.334;2022-10-03T01:44:20;94736.22;;;15.04;80.25
12101;BME280;6113;42.678;23.334;2022-10-03T01:46:51;94748.41;;;15.03;80.03
12101;BME280;6113;42.678;23.334;2022-10-03T01:49:23;94741.41;;;15.02;80.37
12101;BME280;6113;42.678;23.334;2022-10-03T01:51:58;94732.69;;;14.98;80.29
12101;BME280;6113;42.678;23.334;2022-10-03T01:54:33;94732.69;;;15.03;79.38
12101;BME280;6113;42.678;23.334;2022-10-03T01:57:11;94734.22;;;15.04;79.16
12101;BME280;6113;42.678;23.334;2022-10-03T01:59:47;94733.75;;;15.06;78.66
12101;BME280;6113;42.678;23.334;2022-10-03T02:02:24;94730.22;;;15.05;79.33
12101;BME280;6113;42.678;23.334;2022-10-03T02:05:01;94724.69;;;14.95;79.52
12101;BME280;6113;42.678;23.334;2022-10-03T02:07:39;94723.25;;;15.04;78.56
12101;BME280;6113;42.678;23.334;2022-10-03T02:10:17;94730.78;;;15.09;77.75
12101;BME280;6113;42.678;23.334;2022-10-03T02:12:52;94699.78;;;14.98;77.34
12101;BME280;6113;42.678;23.334;2022-10-03T02:15:25;94724.56;;;15.14;77.96
12101;BME280;6113;42.678;23.334;2022-10-03T02:17:57;94724.28;;;15.12;78.75
12101;BME280;6113;42.678;23.334;2022-10-03T02:20:34;94725.25;;;15.04;80.01
12101;BME280;6113;42.678;23.334;2022-10-03T02:23:23;94707.81;;;14.76;80.51
12101;BME280;6113;42.678;23.334;2022-10-03T02:26:02;94729.34;;;14.89;81.25
12101;BME280;6113;42.678;23.334;2022-10-03T02:32:12;94724.75;;;14.75;81.71
12101;BME280;6113;42.678;23.334;2022-10-03T02:35:05;94720.09;;;14.55;82.05
12101;BME280;6113;42.678;23.334;2022-10-03T02:38:02;94727.16;;;14.62;82.45
12101;BME280;6113;42.678;23.334;2022-10-03T02:40:52;94732.03;;;14.52;83.05
12101;BME280;6113;42.678;23.334;2022-10-03T02:47:14;94735.75;;;14.49;84.66
12101;BME280;6113;42.678;23.334;2022-10-03T02:50:40;94737.94;;;14.45;85.40
12101;BME280;6113;42.678;23.334;2022-10-03T02:53:51;94735.47;;;14.47;85.36
12101;BME280;6113;42.678;23.334;2022-10-03T02:56:45;94735.47;;;14.47;85.91
12101;BME280;6113;42.678;23.334;2022-10-03T02:59:53;94731.66;;;14.39;86.20
12101;BME280;6113;42.678;23.334;2022-10-03T03:05:37;94731.13;;;14.35;86.52
12101;BME280;6113;42.678;23.334;2022-10-03T03:30:35;94717.38;;;14.30;87.36
12101;BME280;6113;42.678;23.334;2022-10-03T03:33:12;94716.16;;;14.31;87.09
12101;BME280;6113;42.678;23.334;2022-10-03T03:35:55;94715.16;;;14.28;87.15
12101;BME280;6113;42.678;23.334;2022-10-03T03:38:31;94717.59;;;14.26;87.72
12101;BME280;6113;42.678;23.334;2022-10-03T03:41:23;94706.22;;;14.33;87.50
12101;BME280;6113;42.678;23.334;2022-10-03T03:44:18;94685.78;;;14.09;87.74
12101;BME280;6113;42.678;23.334;2022-10-03T03:47:07;94681.63;;;14.14;88.12
12101;BME280;6113;42.678;23.334;2022-10-03T03:49:51;94703.97;;;14.32;87.97
12101;BME280;6113;42.678;23.334;2022-10-03T03:52:36;94706.66;;;14.26;88.95
12101;BME280;6113;42.678;23.334;2022-10-03T03:55:32;94704.88;;;14.23;89.21
12101;BME280;6113;42.678;23.334;2022-10-03T03:58:26;94698.59;;;14.18;89.46
12101;BME280;6113;42.678;23.334;2022-10-03T04:01:12;94706.66;;;14.26;88.83
12101;BME280;6113;42.678;23.334;2022-10-03T04:03:51;94679.16;;;14.16;89.14
12101;BME280;6113;42.678;23.334;2022-10-03T04:06:34;94687.38;;;14.16;89.40
12101;BME280;6113;42.678;23.334;2022-10-03T04:09:17;94688.94;;;14.22;89.65
12101;BME280;6113;42.678;23.334;2022-10-03T04:11:54;94682.00;;;14.26;89.27
12101;BME280;6113;42.678;23.334;2022-10-03T04:14:53;94696.66;;;14.23;89.52
12101;BME280;6113;42.678;23.334;2022-10-03T04:17:35;94692.91;;;14.21;89.62
12101;BME280;6113;42.678;23.334;2022-10-03T04:20:42;94691.59;;;14.17;89.89
12101;BME280;6113;42.678;23.334;2022-10-03T04:23:27;94686.88;;;14.17;89.48
12101;BME280;6113;42.678;23.334;2022-10-03T04:26:13;94689.16;;;14.18;89.21
12101;BME280;6113;42.678;23.334;2022-10-03T04:29:01;94697.31;;;14.13;90.15
12101;BME280;6113;42.678;23.334;2022-10-03T04:31:40;94689.81;;;14.14;90.14
12101;BME280;6113;42.678;23.334;2022-10-03T04:34:22;94684.84;;;14.12;90.47
12101;BME280;6113;42.678;23.334;2022-10-03T04:37:04;94687.09;;;14.14;90.91
12101;BME280;6113;42.678;23.334;2022-10-03T04:39:37;94686.13;;;14.17;90.76
12101;BME280;6113;42.678;23.334;2022-10-03T04:42:17;94684.13;;;14.17;91.24
12101;BME280;6113;42.678;23.334;2022-10-03T04:45:04;94690.38;;;14.18;91.16
12101;BME280;6113;42.678;23.334;2022-10-03T04:47:42;94699.38;;;14.23;91.40
12101;BME280;6113;42.678;23.334;2022-10-03T04:50:23;94674.66;;;14.13;92.07
12101;BME280;6113;42.678;23.334;2022-10-03T04:53:00;94666.44;;;14.13;91.64
12101;BME280;6113;42.678;23.334;2022-10-03T04:55:39;94673.00;;;14.20;91.62
12101;BME280;6113;42.678;23.334;2022-10-03T04:58:20;94684.81;;;14.32;91.18
12101;BME280;6113;42.678;23.334;2022-10-03T05:00:58;94684.03;;;14.31;90.64
12101;BME280;6113;42.678;23.334;2022-10-03T05:03:36;94691.28;;;14.34;90.34
12101;BME280;6113;42.678;23.334;2022-10-03T05:06:22;94676.09;;;14.33;90.39
12101;BME280;6113;42.678;23.334;2022-10-03T05:08:56;94703.25;;;14.37;90.71
12101;BME280;6113;42.678;23.334;2022-10-03T05:11:42;94684.88;;;14.43;92.74
12101;BME280;6113;42.678;23.334;2022-10-03T05:14:17;94679.47;;;14.48;91.55
12101;BME280;6113;42.678;23.334;2022-10-03T05:16:51;94684.78;;;14.57;91.04
12101;BME280;6113;42.678;23.334;2022-10-03T05:19:44;94687.84;;;14.70;91.06
12101;BME280;6113;42.678;23.334;2022-10-03T05:22:38;94685.47;;;14.83;94.77
12101;BME280;6113;42.678;23.334;2022-10-03T05:25:21;94670.09;;;14.91;97.29
12101;BME280;6113;42.678;23.334;2022-10-03T05:27:55;94684.72;;;15.19;95.73
12101;BME280;6113;42.678;23.334;2022-10-03T05:30:38;94681.09;;;15.38;95.32
12101;BME280;6113;42.678;23.334;2022-10-03T05:33:13;94674.41;;;15.50;93.03
12101;BME280;6113;42.678;23.334;2022-10-03T05:35:50;94675.97;;;15.62;91.14
12101;BME280;6113;42.678;23.334;2022-10-03T05:41:34;94651.50;;;15.59;84.84
12101;BME280;6113;42.678;23.334;2022-10-03T05:44:08;94647.03;;;15.61;83.85
12101;BME280;6113;42.678;23.334;2022-10-03T05:46:54;94650.00;;;15.58;82.59
12101;BME280;6113;42.678;23.334;2022-10-03T05:49:35;94663.22;;;15.59;82.64
12101;BME280;6113;42.678;23.334;2022-10-03T05:52:22;94669.16;;;15.47;82.71
12101;BME280;6113;42.678;23.334;2022-10-03T05:55:09;94667.69;;;15.46;82.87
12101;BME280;6113;42.678;23.334;2022-10-03T05:58:09;94660.94;;;15.47;83.02
12101;BME280;6113;42.678;23.334;2022-10-03T06:01:04;94671.91;;;15.47;83.33
12101;BME280;6113;42.678;23.334;2022-10-03T06:04:03;94679.66;;;15.48;84.95
12101;BME280;6113;42.678;23.334;2022-10-03T06:06:49;94674.41;;;15.50;84.86
12101;BME280;6113;42.678;23.334;2022-10-03T06:09:34;94678.44;;;15.55;83.50
12101;BME280;6113;42.678;23.334;2022-10-03T06:12:08;94683.69;;;15.58;83.69
12101;BME280;6113;42.678;23.334;2022-10-03T06:15:10;94685.19;;;15.59;82.70
12101;BME280;6113;42.678;23.334;2022-10-03T06:17:55;94680.81;;;15.31;80.83
12101;BME280;6113;42.678;23.334;2022-10-03T06:24:18;94700.88;;;14.75;84.17
12101;BME280;6113;42.678;23.334;2022-10-03T06:27:10;94698.63;;;14.79;84.39
12101;BME280;6113;42.678;23.334;2022-10-03T06:29:58;94690.06;;;14.97;84.34
12101;BME280;6113;42.678;23.334;2022-10-03T06:33:00;94682.03;;;15.24;83.45
12101;BME280;6113;42.678;23.334;2022-10-03T06:39:43;94683.03;;;15.79;81.59
12101;BME280;6113;42.678;23.334;2022-10-03T06:42:31;94692.34;;;15.98;80.51
12101;BME280;6113;42.678;23.334;2022-10-03T06:45:35;94694.09;;;16.07;80.59
12101;BME280;6113;42.678;23.334;2022-10-03T06:48:23;94671.59;;;15.97;81.04
12101;BME280;6113;42.678;23.334;2022-10-03T06:51:09;94689.63;;;16.20;80.89
12101;BME280;6113;42.678;23.334;2022-10-03T06:53:58;94687.13;;;16.11;81.21
12101;BME280;6113;42.678;23.334;2022-10-03T06:57:00;94697.91;;;16.26;80.56
12101;BME280;6113;42.678;23.334;2022-10-03T06:59:51;94697.91;;;16.26;79.03
12101;BME280;6113;42.678;23.334;2022-10-03T07:02:55;94707.88;;;16.23;79.01
12101;BME280;6113;42.678;23.334;2022-10-03T07:15:25;94728.03;;;15.98;78.79
12101;BME280;6113;42.678;23.334;2022-10-03T07:18:26;94761.25;;;16.06;78.51
12101;BME280;6113;42.678;23.334;2022-10-03T07:21:26;94771.97;;;15.98;79.97
12101;BME280;6113;42.678;23.334;2022-10-03T07:24:13;94761.38;;;15.80;81.79
12101;BME280;6113;42.678;23.334;2022-10-03T07:26:57;94772.09;;;15.78;82.57
12101;BME280;6113;42.678;23.334;2022-10-03T07:29:57;94771.78;;;15.66;83.92
12101;BME280;6113;42.678;23.334;2022-10-03T07:35:40;94784.56;;;15.74;84.87
12101;BME280;6113;42.678;23.334;2022-10-03T07:38:55;94791.28;;;15.68;85.27
12101;BME280;6113;42.678;23.334;2022-10-03T07:44:56;94816.91;;;15.59;88.78
12101;BME280;6113;42.678;23.334;2022-10-03T07:50:56;94801.16;;;15.54;88.70
12101;BME280;6113;42.678;23.334;2022-10-03T07:56:46;94794.16;;;15.53;88.52
12101;BME280;6113;42.678;23.334;2022-10-03T07:59:51;94797.69;;;15.54;89.20
12101;BME280;6113;42.678;23.334;2022-10-03T08:02:42;94802.41;;;15.53;89.82
12101;BME280;6113;42.678;23.334;2022-10-03T08:05:22;94804.91;;;15.57;89.92
12101;BME280;6113;42.678;23.334;2022-10-03T08:08:11;94802.72;;;15.61;89.86
12101;BME280;6113;42.678;23.334;2022-10-03T08:11:01;94803.94;;;15.60;89.42
12101;BME280;6113;42.678;23.334;2022-10-03T08:13:55;94796.41;;;15.49;89.62
12101;BME280;6113;42.678;23.334;2022-10-03T08:16:45;94805.41;;;15.55;90.77
12101;BME280;6113;42.678;23.334;2022-10-03T08:19:27;94792.25;;;15.28;91.64
12101;BME280;6113;42.678;23.334;2022-10-03T08:22:04;94808.47;;;15.32;92.18
12101;BME280;6113;42.678;23.334;2022-10-03T08:24:58;94810.25;;;15.35;92.25
12101;BME280;6113;42.678;23.334;2022-10-03T08:27:43;94809.22;;;15.01;93.96
12101;BME280;6113;42.678;23.334;2022-10-03T08:30:22;94814.84;;;15.18;94.51
12101;BME280;6113;42.678;23.334;2022-10-03T08:33:14;94816.03;;;15.11;95.95
12101;BME280;6113;42.678;23.334;2022-10-03T08:36:07;94820.19;;;15.27;97.55
12101;BME280;6113;42.678;23.334;2022-10-03T08:38:51;94812.03;;;15.38;96.65
12101;BME280;6113;42.678;23.334;2022-10-03T08:45:06;94821.50;;;15.37;95.78
12101;BME280;6113;42.678;23.334;2022-10-03T08:51:06;94818.75;;;15.37;96.47
12101;BME280;6113;42.678;23.334;2022-10-03T09:00:10;94823.25;;;15.40;96.61
12101;BME280;6113;42.678;23.334;2022-10-03T09:23:21;94837.66;;;16.07;100.00
12101;BME280;6113;42.678;23.334;2022-10-03T09:32:51;94823.31;;;16.34;98.59
12101;BME280;6113;42.678;23.334;2022-10-03T09:35:46;94809.88;;;16.42;96.54
12101;BME280;6113;42.678;23.334;2022-10-03T09:38:45;94825.38;;;16.50;94.99
12101;BME280;6113;42.678;23.334;2022-10-03T09:41:56;94820.69;;;16.67;92.78
12101;BME280;6113;42.678;23.334;2022-10-03T09:44:42;94815.69;;;16.71;92.35
12101;BME280;6113;42.678;23.334;2022-10-03T09:50:51;94809.88;;;16.47;90.23
12101;BME280;6113;42.678;23.334;2022-10-03T09:59:35;94803.69;;;15.99;90.50
12101;BME280;6113;42.678;23.334;2022-10-03T10:02:26;94804.03;;;16.23;88.00
12101;BME280;6113;42.678;23.334;2022-10-03T10:05:18;94799.47;;;16.84;87.51
12101;BME280;6113;42.678;23.334;2022-10-03T10:08:07;94762.50;;;17.39;82.31
12101;BME280;6113;42.678;23.334;2022-10-03T10:10:50;94803.00;;;17.44;80.38
12101;BME280;6113;42.678;23.334;2022-10-03T10:13:48;94793.19;;;16.83;78.97
12101;BME280;6113;42.678;23.334;2022-10-03T10:16:34;94797.44;;;16.68;80.12
12101;BME280;6113;42.678;23.334;2022-10-03T10:19:30;94798.44;;;16.70;80.36
12101;BME280;6113;42.678;23.334;2022-10-03T10:22:13;94786.94;;;16.72;79.25
12101;BME280;6113;42.678;23.334;2022-10-03T10:25:05;94764.63;;;16.32;78.97
12101;BME280;6113;42.678;23.334;2022-10-03T10:28:01;94801.66;;;16.58;79.32
12101;BME280;6113;42.678;23.334;2022-10-03T10:31:01;94795.81;;;16.29;79.16
12101;BME280;6113;42.678;23.334;2022-10-03T10:43:22;94787.41;;;16.59;76.52
12101;BME280;6113;42.678;23.334;2022-10-03T10:46:13;94806.94;;;16.83;74.90
12101;BME280;6113;42.678;23.334;2022-10-03T10:52:25;94802.00;;;16.98;74.80
12101;BME280;6113;42.678;23.334;2022-10-03T10:55:35;94788.00;;;17.02;74.17
12101;BME280;6113;42.678;23.334;2022-10-03T10:58:33;94798.75;;;17.54;73.35
12101;BME280;6113;42.678;23.334;2022-10-03T11:07:49;94797.00;;;17.57;70.67
12101;BME280;6113;42.678;23.334;2022-10-03T11:10:34;94801.72;;;17.67;70.65
12101;BME280;6113;42.678;23.334;2022-10-03T11:16:56;94802.66;;;17.97;71.02
12101;BME280;6113;42.678;23.334;2022-10-03T11:32:49;94801.03;;;17.29;71.80
12101;BME280;6113;42.678;23.334;2022-10-03T11:35:52;94795.75;;;17.09;71.59
12101;BME280;6113;42.678;23.334;2022-10-03T11:38:28;94804.97;;;16.84;71.13
12101;BME280;6113;42.678;23.334;2022-10-03T11:41:04;94798.00;;;16.94;71.94
12101;BME280;6113;42.678;23.334;2022-10-03T11:43:57;94773.69;;;16.54;71.35
12101;BME280;6113;42.678;23.334;2022-10-03T11:49:56;94606.28;;;15.32;72.75
12101;BME280;6113;42.678;23.334;2022-10-03T11:52:33;94816.16;;;16.53;73.45
12101;BME280;6113;42.678;23.334;2022-10-03T11:55:08;94795.56;;;16.32;73.69
12101;BME280;6113;42.678;23.334;2022-10-03T11:57:45;94806.34;;;16.41;74.61
12101;BME280;6113;42.678;23.334;2022-10-03T12:00:19;94785.38;;;16.38;75.03
12101;BME280;6113;42.678;23.334;2022-10-03T12:03:02;94795.53;;;16.21;76.07
12101;BME280;6113;42.678;23.334;2022-10-03T12:05:45;94800.38;;;16.43;76.25
12101;BME280;6113;42.678;23.334;2022-10-03T12:08:21;94798.91;;;16.47;75.93
12101;BME280;6113;42.678;23.334;2022-10-03T12:11:12;94790.22;;;16.76;74.72
12101;BME280;6113;42.678;23.334;2022-10-03T12:13:51;94792.00;;;17.01;72.34
12101;BME280;6113;42.678;23.334;2022-10-03T12:16:24;94791.72;;;16.88;72.52
12101;BME280;6113;42.678;23.334;2022-10-03T12:19:00;94799.00;;;17.24;72.18
12101;BME280;6113;42.678;23.334;2022-10-03T12:21:34;94785.00;;;17.49;71.04
12101;BME280;6113;42.678;23.334;2022-10-03T12:24:17;94786.69;;;17.79;67.89
12101;BME280;6113;42.678;23.334;2022-10-03T12:26:52;94777.69;;;17.73;64.12
12101;BME280;6113;42.678;23.334;2022-10-03T12:29:24;94771.59;;;18.02;64.22
12101;BME280;6113;42.678;23.334;2022-10-03T12:32:16;94782.53;;;18.35;64.11
12101;BME280;6113;42.678;23.334;2022-10-03T12:34:49;94763.41;;;18.48;62.48
12101;BME280;6113;42.678;23.334;2022-10-03T12:37:45;94756.94;;;18.80;60.42
12101;BME280;6113;42.678;23.334;2022-10-03T12:40:19;94767.78;;;19.07;60.20
12101;BME280;6113;42.678;23.334;2022-10-03T12:42:59;94754.59;;;19.30;58.16
12101;BME280;6113;42.678;23.334;2022-10-03T12:45:31;94748.38;;;19.24;57.40
12101;BME280;6113;42.678;23.334;2022-10-03T12:48:14;94757.31;;;19.35;56.24
12101;BME280;6113;42.678;23.334;2022-10-03T12:50:46;94747.94;;;19.44;54.76
12101;BME280;6113;42.678;23.334;2022-10-03T12:53:36;94768.59;;;19.61;53.65
12101;BME280;6113;42.678;23.334;2022-10-03T12:56:17;94747.47;;;19.10;55.00
12101;BME280;6113;42.678;23.334;2022-10-03T12:58:52;94759.72;;;19.15;55.63
12101;BME280;6113;42.678;23.334;2022-10-03T13:01:27;94730.91;;;19.10;55.21
12101;BME280;6113;42.678;23.334;2022-10-03T13:04:00;94763.59;;;18.61;57.13
12101;BME280;6113;42.678;23.334;2022-10-03T13:06:40;94759.66;;;18.45;56.40
12101;BME280;6113;42.678;23.334;2022-10-03T13:09:29;94773.47;;;18.45;56.14
12101;BME280;6113;42.678;23.334;2022-10-03T13:12:06;94762.28;;;18.67;56.39
12101;BME280;6113;42.678;23.334;2022-10-03T13:17:44;94783.88;;;19.03;55.68
12101;BME280;6113;42.678;23.334;2022-10-03T13:20:22;94769.84;;;19.36;54.51
12101;BME280;6113;42.678;23.334;2022-10-03T13:22:59;94772.09;;;19.38;54.15
12101;BME280;6113;42.678;23.334;2022-10-03T13:25:34;94774.47;;;19.52;54.90
12101;BME280;6113;42.678;23.334;2022-10-03T13:28:12;94782.53;;;19.74;54.79
12101;BME280;6113;42.678;23.334;2022-10-03T13:30:45;94783.91;;;19.62;53.88
12101;BME280;6113;42.678;23.334;2022-10-03T13:33:16;94773.47;;;19.50;53.48
12101;BME280;6113;42.678;23.334;2022-10-03T13:35:47;94781.53;;;19.48;52.86
12101;BME280;6113;42.678;23.334;2022-10-03T13:38:52;94783.88;;;19.38;52.63
12101;BME280;6113;42.678;23.334;2022-10-03T13:41:41;94769.97;;;19.49;53.21
12101;BME280;6113;42.678;23.334;2022-10-03T13:44:14;94769.59;;;19.64;53.74
12101;BME280;6113;42.678;23.334;2022-10-03T13:46:44;94759.38;;;19.53;53.02
12101;BME280;6113;42.678;23.334;2022-10-03T13:49:15;94768.59;;;19.61;52.33
12101;BME280;6113;42.678;23.334;2022-10-03T13:51:50;94781.34;;;19.40;52.16
12101;BME280;6113;42.678;23.334;2022-10-03T13:54:25;94766.34;;;19.01;52.31
12101;BME280;6113;42.678;23.334;2022-10-03T13:57:11;94765.31;;;18.64;53.99
12101;BME280;6113;42.678;23.334;2022-10-03T14:00:03;94768.94;;;18.48;54.57
12101;BME280;6113;42.678;23.334;2022-10-03T14:02:59;94780.38;;;18.63;54.63
12101;BME280;6113;42.678;23.334;2022-10-03T14:08:29;94768.13;;;17.96;55.38
12101;BME280;6113;42.678;23.334;2022-10-03T14:11:09;94791.44;;;17.84;55.12
12101;BME280;6113;42.678;23.334;2022-10-03T14:13:53;94769.47;;;17.57;55.62
12101;BME280;6113;42.678;23.334;2022-10-03T14:16:27;94788.22;;;17.75;55.93
12101;BME280;6113;42.678;23.334;2022-10-03T14:19:02;94765.47;;;17.52;55.64
12101;BME280;6113;42.678;23.334;2022-10-03T14:21:54;94780.25;;;17.28;56.44
12101;BME280;6113;42.678;23.334;2022-10-03T14:24:44;94752.72;;;16.84;56.12
12101;BME280;6113;42.678;23.334;2022-10-03T14:27:44;94766.72;;;16.80;56.37
12101;BME280;6113;42.678;23.334;2022-10-03T14:30:14;94736.22;;;16.62;56.44
12101;BME280;6113;42.678;23.334;2022-10-03T14:32:49;94785.50;;;16.93;56.75
12101;BME280;6113;42.678;23.334;2022-10-03T14:35:35;94790.50;;;17.00;57.03
12101;BME280;6113;42.678;23.334;2022-10-03T14:38:14;94780.47;;;16.80;56.77
12101;BME280;6113;42.678;23.334;2022-10-03T14:40:48;94799.97;;;16.88;56.89
12101;BME280;6113;42.678;23.334;2022-10-03T14:43:25;94792.97;;;16.76;57.33
12101;BME280;6113;42.678;23.334;2022-10-03T14:45:57;94781.94;;;16.65;58.18
12101;BME280;6113;42.678;23.334;2022-10-03T14:48:28;94791.19;;;16.73;58.46
12101;BME280;6113;42.678;23.334;2022-10-03T14:51:09;94792.38;;;16.39;59.00
12101;BME280;6113;42.678;23.334;2022-10-03T14:53:45;94793.13;;;16.45;60.68
12101;BME280;6113;42.678;23.334;2022-10-03T14:56:18;94779.09;;;16.32;61.08
12101;BME280;6113;42.678;23.334;2022-10-03T14:58:48;94806.34;;;16.41;61.66
12101;BME280;6113;42.678;23.334;2022-10-03T15:01:18;94808.38;;;16.41;62.86
12101;BME280;6113;42.678;23.334;2022-10-03T15:03:55;94804.97;;;16.15;63.92
12101;BME280;6113;42.678;23.334;2022-10-03T15:06:36;94804.66;;;15.96;65.51
12101;BME280;6113;42.678;23.334;2022-10-03T15:09:17;94788.84;;;15.80;65.98
12101;BME280;6113;42.678;23.334;2022-10-03T15:11:49;94781.22;;;15.54;67.12
12101;BME280;6113;42.678;23.334;2022-10-03T15:14:19;94810.00;;;15.69;67.17
12101;BME280;6113;42.678;23.334;2022-10-03T15:16:52;94818.72;;;15.68;67.74
12101;BME280;6113;42.678;23.334;2022-10-03T15:19:22;94827.75;;;15.74;66.92
12101;BME280;6113;42.678;23.334;2022-10-03T15:21:53;94822.09;;;15.88;67.24
12101;BME280;6113;42.678;23.334;2022-10-03T15:24:24;94825.31;;;15.86;66.89
12101;BME280;6113;42.678;23.334;2022-10-03T15:27:00;94822.13;;;15.99;68.05
12101;BME280;6113;42.678;23.334;2022-10-03T15:29:29;94829.38;;;15.96;67.76
12101;BME280;6113;42.678;23.334;2022-10-03T15:31:57;94836.06;;;15.84;67.30
12101;BME280;6113;42.678;23.334;2022-10-03T15:34:29;94841.22;;;15.77;67.60
12101;BME280;6113;42.678;23.334;2022-10-03T15:36:59;94827.16;;;15.59;67.47
12101;BME280;6113;42.678;23.334;2022-10-03T15:39:33;94811.22;;;15.32;68.33
12101;BME280;6113;42.678;23.334;2022-10-03T15:42:18;94820.88;;;15.22;69.35
12101;BME280;6113;42.678;23.334;2022-10-03T15:44:49;94824.25;;;15.11;69.70
12101;BME280;6113;42.678;23.334;2022-10-03T15:47:19;94834.19;;;15.09;69.76
12101;BME280;6113;42.678;23.334;2022-10-03T15:49:51;94825.13;;;14.97;69.65
12101;BME280;6113;42.678;23.334;2022-10-03T15:52:22;94839.31;;;14.96;69.64
12101;BME280;6113;42.678;23.334;2022-10-03T15:54:55;94840.84;;;14.97;69.57
12101;BME280;6113;42.678;23.334;2022-10-03T15:57:27;94843.47;;;14.86;70.38
12101;BME280;6113;42.678;23.334;2022-10-03T15:59:56;94844.00;;;14.90;70.43
12101;BME280;6113;42.678;23.334;2022-10-03T16:02:29;94852.25;;;14.90;70.33
12101;BME280;6113;42.678;23.334;2022-10-03T16:04:58;94841.94;;;14.85;69.64
12101;BME280;6113;42.678;23.334;2022-10-03T16:07:33;94848.28;;;14.71;70.30
12101;BME280;6113;42.678;23.334;2022-10-03T16:10:11;94845.28;;;14.69;69.47
12101;BME280;6113;42.678;23.334;2022-10-03T16:12:54;94867.19;;;14.69;69.40
12101;BME280;6113;42.678;23.334;2022-10-03T16:15:27;94874.03;;;14.79;68.76
12101;BME280;6113;42.678;23.334;2022-10-03T16:18:00;94878.44;;;14.71;68.88
12101;BME280;6113;42.678;23.334;2022-10-03T16:20:30;94876.44;;;14.72;68.75
12101;BME280;6113;42.678;23.334;2022-10-03T16:23:09;94881.53;;;14.79;68.60
12101;BME280;6113;42.678;23.334;2022-10-03T16:25:44;94886.09;;;14.87;68.38
12101;BME280;6113;42.678;23.334;2022-10-03T16:28:17;94893.97;;;14.80;68.14
12101;BME280;6113;42.678;23.334;2022-10-03T16:30:51;94813.97;;;14.30;68.38
12101;BME280;6113;42.678;23.334;2022-10-03T16:33:22;94875.69;;;14.71;68.58
12101;BME280;6113;42.678;23.334;2022-10-03T16:35:52;94882.84;;;14.63;68.52
12101;BME280;6113;42.678;23.334;2022-10-03T16:38:23;94908.00;;;14.87;68.44
12101;BME280;6113;42.678;23.334;2022-10-03T16:40:56;94890.31;;;14.63;68.77
12101;BME280;6113;42.678;23.334;2022-10-03T16:43:25;94904.25;;;14.85;69.81
12101;BME280;6113;42.678;23.334;2022-10-03T16:45:56;94903.34;;;14.93;69.26
12101;BME280;6113;42.678;23.334;2022-10-03T16:48:27;94908.94;;;15.04;67.95
12101;BME280;6113;42.678;23.334;2022-10-03T16:51:18;94926.06;;;14.99;68.55
12101;BME280;6113;42.678;23.334;2022-10-03T16:53:47;94928.19;;;15.09;68.43
12101;BME280;6113;42.678;23.334;2022-10-03T16:56:18;94927.06;;;14.96;68.84
12101;BME280;6113;42.678;23.334;2022-10-03T16:58:51;94927.84;;;14.77;69.48
12101;BME280;6113;42.678;23.334;2022-10-03T17:01:27;94932.09;;;14.58;69.94
12101;BME280;6113;42.678;23.334;2022-10-03T17:04:01;94935.84;;;14.60;70.78
12101;BME280;6113;42.678;23.334;2022-10-03T17:06:35;94917.09;;;14.53;70.63
12101;BME280;6113;42.678;23.334;2022-10-03T17:09:12;94938.44;;;14.69;70.84